createdAt,value
2024-02-29T00:02:47.593Z,5.63
2024-02-29T00:07:53.445Z,5.61
2024-02-29T00:13:17.221Z,5.55
2024-02-29T00:18:39.405Z,5.63
2024-02-29T00:24:03.301Z,5.65
2024-02-29T00:29:26.765Z,5.69
2024-02-29T00:34:56.075Z,5.69
2024-02-29T00:40:20.161Z,5.72
2024-02-29T00:45:56.677Z,5.76
2024-02-29T00:51:05.765Z,5.73
2024-02-29T00:56:24.177Z,5.69
2024-02-29T01:01:33.545Z,5.75
2024-02-29T01:06:50.750Z,5.74
2024-02-29T01:12:15.912Z,5.76
2024-02-29T01:17:49.953Z,5.79
2024-02-29T01:23:16.364Z,5.82
2024-02-29T01:29:00.274Z,5.83
2024-02-29T01:34:06.764Z,5.78
2024-02-29T01:39:12.529Z,5.76
2024-02-29T01:44:28.799Z,5.73
2024-02-29T01:50:05.973Z,5.72
2024-02-29T01:55:20.302Z,5.72
2024-02-29T02:00:23.588Z,5.71
2024-02-29T02:05:36.270Z,5.71
2024-02-29T02:10:48.694Z,5.65
2024-02-29T02:15:54.795Z,5.63
2024-02-29T02:21:09.164Z,5.64
2024-02-29T02:26:24.185Z,5.61
2024-02-29T02:31:28.016Z,5.57
2024-02-29T02:36:31.480Z,5.53
2024-02-29T02:41:55.363Z,5.47
2024-02-29T02:47:01.947Z,5.45
2024-02-29T02:52:05.711Z,5.48
2024-02-29T02:57:17.911Z,5.53
2024-02-29T03:02:41.828Z,5.47
2024-02-29T03:08:16.117Z,5.41
2024-02-29T03:13:29.077Z,5.42
2024-02-29T03:18:35.521Z,5.46
2024-02-29T03:24:06.879Z,5.52
2024-02-29T03:29:23.423Z,5.54
2024-02-29T03:34:29.147Z,5.51
2024-02-29T03:39:45.728Z,5.42
2024-02-29T03:45:09.545Z,5.41
2024-02-29T03:50:20.640Z,5.39
2024-02-29T03:55:45.012Z,5.39
2024-02-29T04:00:53.524Z,5.38
2024-02-29T04:06:57.750Z,5.32
2024-02-29T04:12:44.782Z,5.38
2024-02-29T04:18:02.722Z,5.35
2024-02-29T04:23:17.692Z,5.31
2024-02-29T04:28:41.246Z,5.32
2024-02-29T04:34:19.287Z,5.35
2024-02-29T04:39:46.859Z,5.33
2024-02-29T04:45:01.968Z,5.34
2024-02-29T04:50:09.353Z,5.43
2024-02-29T04:55:33.036Z,5.43
2024-02-29T05:00:59.984Z,5.45
2024-02-29T05:06:15.133Z,5.52
2024-02-29T05:11:41.037Z,5.57
2024-02-29T05:16:54.663Z,5.57
2024-02-29T05:22:03.756Z,5.48
2024-02-29T05:27:07.508Z,5.44
2024-02-29T05:32:11.100Z,5.49
2024-02-29T05:37:17.904Z,5.50
2024-02-29T05:42:23.750Z,5.45
2024-02-29T05:47:27.494Z,5.46
2024-02-29T05:52:33.556Z,5.46
2024-02-29T05:57:37.233Z,5.49
2024-02-29T06:02:52.109Z,5.49
2024-02-29T06:08:23.408Z,5.57
2024-02-29T06:13:28.578Z,5.53
2024-02-29T06:19:12.674Z,5.55
2024-02-29T06:24:58.135Z,5.67
2024-02-29T06:30:05.768Z,5.66
2024-02-29T06:35:24.181Z,5.76
2024-02-29T06:40:37.481Z,5.79
2024-02-29T06:45:56.919Z,5.80
2024-02-29T06:51:00.686Z,5.89
2024-02-29T06:56:05.584Z,5.96
2024-02-29T07:01:09.325Z,6.04
2024-02-29T07:06:12.996Z,6.11
2024-02-29T07:11:16.734Z,6.12
2024-02-29T07:16:52.004Z,6.18
2024-02-29T07:21:55.660Z,6.29
2024-02-29T07:27:22.529Z,6.37
2024-02-29T07:32:26.088Z,6.50
2024-02-29T07:37:41.116Z,6.73
2024-02-29T07:42:44.822Z,6.87
2024-02-29T07:48:17.852Z,7.00
2024-02-29T07:53:21.478Z,7.15
2024-02-29T07:58:28.318Z,7.32
2024-02-29T08:03:47.481Z,7.15
2024-02-29T08:08:53.918Z,7.07
2024-02-29T08:13:57.709Z,7.10
2024-02-29T08:19:08.632Z,7.11
2024-02-29T08:24:12.330Z,7.17
2024-02-29T08:29:18.013Z,7.42
2024-02-29T08:34:21.594Z,7.74
2024-02-29T08:39:35.278Z,8.02
2024-02-29T08:44:43.953Z,8.34
2024-02-29T08:49:47.419Z,8.66
2024-02-29T08:54:51.180Z,8.73
2024-02-29T09:00:00.901Z,8.56
2024-02-29T09:05:26.710Z,8.52
2024-02-29T09:10:31.114Z,8.47
2024-02-29T09:15:35.099Z,8.51
2024-02-29T09:20:38.574Z,8.54
2024-02-29T09:25:45.535Z,8.61
2024-02-29T09:30:49.165Z,8.73
2024-02-29T09:35:59.405Z,9.12
2024-02-29T09:41:13.207Z,9.46
2024-02-29T09:46:29.181Z,9.65
2024-02-29T09:51:33.547Z,9.93
2024-02-29T09:56:36.884Z,10.23
2024-02-29T10:01:41.786Z,10.37
2024-02-29T10:06:46.056Z,10.48
2024-02-29T10:11:50.035Z,10.62
2024-02-29T10:16:54.746Z,10.59
2024-02-29T10:21:58.987Z,10.64
2024-02-29T10:27:03.763Z,10.52
2024-02-29T10:32:07.507Z,10.38
2024-02-29T10:37:11.195Z,10.24
2024-02-29T10:42:18.466Z,10.20
2024-02-29T10:47:32.394Z,10.29
2024-02-29T10:52:46.069Z,10.36
2024-02-29T10:58:18.467Z,10.64
2024-02-29T11:03:23.192Z,11.08
2024-02-29T11:08:27.182Z,11.08
2024-02-29T11:13:30.833Z,11.18
2024-02-29T11:18:37.019Z,11.31
2024-02-29T11:23:42.305Z,11.36
2024-02-29T11:28:50.337Z,11.56
2024-02-29T11:33:53.875Z,11.67
2024-02-29T11:38:57.240Z,11.80
2024-02-29T11:44:00.538Z,11.84
2024-02-29T11:49:04.013Z,11.77
2024-02-29T11:54:07.619Z,11.85
2024-02-29T11:59:12.423Z,12.00
2024-02-29T12:04:16.907Z,12.23
2024-02-29T12:09:20.534Z,12.42
2024-02-29T12:14:24.118Z,12.42
2024-02-29T12:19:27.502Z,12.07
2024-02-29T12:24:34.824Z,11.67
2024-02-29T12:29:38.472Z,11.60
2024-02-29T12:34:44.795Z,11.61
2024-02-29T12:39:57.891Z,11.75
2024-02-29T12:45:01.522Z,11.83
2024-02-29T12:50:09.176Z,11.88
2024-02-29T12:55:13.952Z,11.90
2024-02-29T13:00:26.759Z,11.91
2024-02-29T13:05:30.261Z,11.85
2024-02-29T13:10:33.867Z,11.79
2024-02-29T13:15:37.329Z,11.84
2024-02-29T13:20:41.520Z,11.76
2024-02-29T13:25:44.899Z,11.62
2024-02-29T13:30:50.023Z,11.65
2024-02-29T13:35:53.546Z,11.68
2024-02-29T13:40:56.873Z,11.67
2024-02-29T13:46:00.472Z,11.75
2024-02-29T13:51:03.942Z,11.68
2024-02-29T13:56:07.369Z,11.62
2024-02-29T14:01:11.295Z,11.61
2024-02-29T14:06:14.979Z,11.59
2024-02-29T14:11:18.440Z,11.65
2024-02-29T14:16:22.461Z,11.65
2024-02-29T14:21:25.868Z,11.51
2024-02-29T14:26:29.612Z,11.35
2024-02-29T14:31:32.963Z,11.29
2024-02-29T14:36:38.619Z,11.26
2024-02-29T14:41:45.281Z,11.27
2024-02-29T14:46:49.566Z,11.27
2024-02-29T14:51:57.400Z,11.15
2024-02-29T14:57:01.871Z,11.11
2024-02-29T15:02:05.802Z,11.05
2024-02-29T15:07:10.391Z,11.07
2024-02-29T15:12:14.013Z,10.97
2024-02-29T15:17:17.468Z,10.96
2024-02-29T15:22:21.787Z,10.92
2024-02-29T15:27:25.281Z,10.81
2024-02-29T15:32:34.682Z,10.71
2024-02-29T15:37:38.579Z,10.64
2024-02-29T15:42:42.410Z,10.59
2024-02-29T15:47:46.939Z,10.57
2024-02-29T15:52:50.872Z,10.56
2024-02-29T15:57:54.917Z,10.53
2024-02-29T16:02:58.415Z,10.48
2024-02-29T16:08:03.065Z,10.42
2024-02-29T16:13:13.987Z,10.31
2024-02-29T16:18:27.848Z,10.18
2024-02-29T16:23:40.700Z,10.01
2024-02-29T16:28:55.635Z,9.88
2024-02-29T16:34:14.495Z,9.78
2024-02-29T16:39:18.329Z,9.68
2024-02-29T16:44:24.716Z,9.59
2024-02-29T16:49:41.863Z,9.49
2024-02-29T16:54:45.260Z,9.41
2024-02-29T17:00:11.423Z,9.32
2024-02-29T17:05:15.182Z,9.25
2024-02-29T17:10:35.060Z,9.18
2024-02-29T17:15:50.536Z,9.14
2024-02-29T17:20:56.875Z,9.07
2024-02-29T17:26:21.442Z,9.01
2024-02-29T17:31:34.245Z,8.96
2024-02-29T17:36:37.713Z,8.84
2024-02-29T17:41:44.457Z,8.73
2024-02-29T17:46:47.862Z,8.71
2024-02-29T17:51:54.096Z,8.68
2024-02-29T17:56:57.707Z,8.68
2024-02-29T18:02:01.398Z,8.68
2024-02-29T18:07:05.501Z,8.70
2024-02-29T18:12:09.310Z,8.75
2024-02-29T18:17:12.638Z,8.77
2024-02-29T18:22:16.431Z,8.80
2024-02-29T18:27:23.084Z,8.90
2024-02-29T18:32:29.359Z,8.95
2024-02-29T18:37:34.650Z,8.99
2024-02-29T18:42:41.320Z,8.99
2024-02-29T18:47:47.655Z,9.02
2024-02-29T18:52:51.504Z,9.08
2024-02-29T18:57:54.926Z,9.13
2024-02-29T19:02:58.421Z,9.15
2024-02-29T19:08:06.470Z,9.15
2024-02-29T19:13:12.438Z,9.15
2024-02-29T19:18:19.870Z,9.19
2024-02-29T19:23:23.391Z,9.21
2024-02-29T19:28:28.976Z,9.23
2024-02-29T19:33:32.811Z,9.27
2024-02-29T19:38:36.193Z,9.29
2024-02-29T19:43:39.632Z,9.28
2024-02-29T19:48:50.657Z,9.23
2024-02-29T19:53:54.346Z,9.20
2024-02-29T19:58:57.830Z,9.14
2024-02-29T20:04:01.630Z,9.09
2024-02-29T20:09:09.500Z,9.06
2024-02-29T20:14:13.082Z,9.04
2024-02-29T20:19:16.557Z,9.02
2024-02-29T20:24:20.140Z,9.02
2024-02-29T20:29:23.791Z,8.99
2024-02-29T20:34:27.539Z,8.96
2024-02-29T20:39:34.295Z,8.90
2024-02-29T20:44:38.322Z,8.89
2024-02-29T20:49:41.829Z,8.88
2024-02-29T20:54:48.005Z,8.88
2024-02-29T20:59:52.080Z,8.91
2024-02-29T21:05:05.338Z,8.92
2024-02-29T21:10:10.086Z,8.95
2024-02-29T21:15:17.091Z,8.94
2024-02-29T21:20:27.677Z,8.97
2024-02-29T21:25:31.437Z,9.00
2024-02-29T21:30:35.168Z,9.00
2024-02-29T21:35:41.506Z,9.02
2024-02-29T21:40:44.950Z,9.02
2024-02-29T21:45:48.504Z,9.06
2024-02-29T21:50:55.245Z,9.05
2024-02-29T21:55:58.897Z,9.04
2024-02-29T22:01:12.137Z,9.05
2024-02-29T22:06:39.092Z,9.02
2024-02-29T22:11:47.677Z,9.02
2024-02-29T22:16:51.528Z,9.02
2024-02-29T22:21:55.265Z,9.04
2024-02-29T22:26:59.127Z,9.07
2024-02-29T22:32:08.437Z,9.10
2024-02-29T22:37:16.035Z,9.11
2024-02-29T22:42:20.552Z,9.15
2024-02-29T22:47:26.728Z,9.14
2024-02-29T22:52:30.331Z,9.14
2024-02-29T22:57:41.424Z,9.13
2024-02-29T23:02:44.993Z,9.10
2024-02-29T23:07:48.545Z,9.10
2024-02-29T23:12:51.935Z,9.15
2024-02-29T23:17:57.210Z,9.17
2024-02-29T23:23:02.026Z,9.16
2024-02-29T23:28:14.467Z,9.18
2024-02-29T23:33:17.891Z,9.23
2024-02-29T23:38:21.593Z,9.29
2024-02-29T23:43:25.069Z,9.31
2024-02-29T23:48:28.642Z,9.33
2024-02-29T23:53:32.037Z,9.38
2024-02-29T23:58:37.265Z,9.41
